Hyundai Dominion — A8IK7 — position and weather

sailwx.info

Track history (hours):
 
Tides and Currents Weather Stations Pressure Air Temp Water Temp Dewpoint Dewpoint Depression Visibility Wind Speed Wind Dir Waves Ship Positions

Hyundai Dominion

Last reported at 2014-Jul-27 14:34 UTC. Time now 2014-Jul-31 13:39 UTC.
Position N 01°11' E 103°50'.

Length 304 m; draft 13.1 m.

Type: Ship (hazmat cat A). MMSI: 636090990.

Date/timePositionNaut miles runAvg speedWind from/ knotsBaromVisibWave heightAir tempDewpointWater temp
2014-Jul-27 14:34N 01°11' E 103°50'5 4.1
2014-Jul-27 13:25N 01°15' E 103°54'0 0.0
2014-Jul-27 12:31N 01°15' E 103°54'0 0.1
2014-Jul-27 11:31N 01°15' E 103°54'0 0.0
2014-Jul-27 10:32N 01°15' E 103°54'0 0.1
2014-Jul-27 09:31N 01°15' E 103°54'0 0.1
2014-Jul-27 08:31N 01°15' E 103°54'0 0.0
2014-Jul-27 07:31N 01°15' E 103°54'0 0.0
2014-Jul-27 06:31N 01°15' E 103°54'0 0.0
2014-Jul-27 05:28N 01°15' E 103°54'0 0.1
2014-Jul-27 04:31N 01°15' E 103°54'0 0.1
2014-Jul-27 03:31N 01°15' E 103°54'0 0.1
2014-Jul-27 02:31N 01°15' E 103°54'0 0.1
2014-Jul-27 01:31N 01°15' E 103°54'0 0.2
2014-Jul-27 00:31N 01°15' E 103°54'0 0.3
2014-Jul-26 23:31N 01°15' E 103°54'0 0.1
2014-Jul-26 22:31N 01°15' E 103°54'0 0.1
2014-Jul-26 21:28N 01°15' E 103°54'0 0.0
2014-Jul-26 20:31N 01°15' E 103°54'0 0.0
2014-Jul-26 19:31N 01°15' E 103°54'0 0.0
2014-Jul-26 18:31N 01°15' E 103°54'0 0.0
2014-Jul-26 17:31N 01°15' E 103°54'0 0.1
2014-Jul-26 16:31N 01°15' E 103°54'0 0.1
2014-Jul-26 15:31N 01°15' E 103°54'0 0.2
2014-Jul-26 14:31N 01°15' E 103°54'0 0.0
2014-Jul-26 13:31N 01°15' E 103°54'0 0.0
2014-Jul-26 12:31N 01°15' E 103°54'0 0.1
2014-Jul-26 11:28N 01°15' E 103°54'0 0.2
2014-Jul-26 10:31N 01°15' E 103°54'0 0.0
2014-Jul-26 09:31N 01°15' E 103°54'0 0.0
2014-Jul-26 08:31N 01°15' E 103°54'0 0.0
2014-Jul-26 07:31N 01°15' E 103°54'0 0.2
2014-Jul-26 06:33N 01°15' E 103°54'6 6.1
2014-Jul-26 05:33N 01°13' E 103°48'4 3.8
2014-Jul-26 04:31N 01°16' E 103°46'0 0.0
2014-Jul-26 03:31N 01°16' E 103°46'0 0.0
2014-Jul-26 02:19N 01°16' E 103°46'0 0.0
2014-Jul-26 00:31N 01°16' E 103°46'0 0.0
2014-Jul-25 23:31N 01°16' E 103°46'0 0.0
2014-Jul-25 22:31N 01°16' E 103°46'0 0.0
2014-Jul-25 21:31N 01°16' E 103°46'0 0.0
2014-Jul-25 20:31N 01°16' E 103°46'0 0.0
2014-Jul-25 19:25N 01°16' E 103°46'0 0.0
2014-Jul-25 18:31N 01°16' E 103°46'0 0.0
2014-Jul-25 17:31N 01°16' E 103°46'0 0.0
2014-Jul-25 16:31N 01°16' E 103°46'0 0.0
2014-Jul-25 15:04N 01°16' E 103°46'0 0.0
2014-Jul-25 14:28N 01°16' E 103°46'0 0.0
2014-Jul-25 13:22N 01°16' E 103°46'0 0.0
2014-Jul-25 12:16N 01°16' E 103°46'0 0.0
2014-Jul-25 11:28N 01°16' E 103°46'0 0.0
2014-Jul-25 10:28N 01°16' E 103°46'0 0.0
2014-Jul-25 09:13N 01°16' E 103°46'0 0.0
2014-Jul-25 07:25N 01°16' E 103°46'0 0.0
2014-Jul-25 06:28N 01°16' E 103°46'2 2.7
2014-Jul-25 05:33N 01°14' E 103°47'6 6.2
2014-Jul-25 04:33N 01°12' E 103°53'3 2.5
2014-Jul-25 03:32N 01°14' E 103°55'6 6.2
2014-Jul-25 02:32N 01°15' E 104°01'  
2014-Jul-21 09:33N 22°22' E 113°54'6 5.2
2014-Jul-21 08:30N 22°28' E 113°53'0 0.0
2014-Jul-21 07:30N 22°28' E 113°53'0 0.0
2014-Jul-21 06:33N 22°28' E 113°53'0 0.0
2014-Jul-21 05:33N 22°28' E 113°53'0 0.0
2014-Jul-21 04:33N 22°28' E 113°53'0 0.0
2014-Jul-21 03:33N 22°28' E 113°53'0 0.0
2014-Jul-21 02:33N 22°28' E 113°53'0 0.0
2014-Jul-21 01:33N 22°28' E 113°53'0 0.0
2014-Jul-21 00:33N 22°28' E 113°53'0 0.0
2014-Jul-20 23:33N 22°28' E 113°53'0 0.0
2014-Jul-20 22:33N 22°28' E 113°53'0 0.0
2014-Jul-20 21:33N 22°28' E 113°53'0 0.0
2014-Jul-20 20:33N 22°28' E 113°53'0 0.0
2014-Jul-20 19:33N 22°28' E 113°53'1 1.1
2014-Jul-20 18:33N 22°27' E 113°53'18512.2
2014-Jul-20 03:18N 23°01' E 117°10'3617.8
2014-Jul-20 01:16N 23°25' E 117°41'1217.3
2014-Jul-20 00:34N 23°34' E 117°49'1817.6
2014-Jul-19 23:34N 23°45' E 118°03'1918.5
2014-Jul-19 22:33N 23°56' E 118°20'3718.1
2014-Jul-19 20:30N 24°19' E 118°52'2017.5
2014-Jul-19 19:22N 24°32' E 119°08'34216.4
2014-Jul-18 22:33N 29°23' E 122°30'1717.0
2014-Jul-18 21:33N 29°40' E 122°26'1413.9
2014-Jul-18 20:33N 29°49' E 122°14'1010.2
2014-Jul-18 19:33N 29°55' E 122°04'2 2.1
2014-Jul-18 18:32N 29°54' E 122°02'0 0.0
2014-Jul-18 17:33N 29°54' E 122°02'0 0.0
2014-Jul-18 16:32N 29°54' E 122°02'0 0.0
2014-Jul-18 15:32N 29°54' E 122°02'0 0.0
2014-Jul-18 14:32N 29°54' E 122°02'0 0.0
2014-Jul-18 13:33N 29°54' E 122°02'0 0.0
2014-Jul-18 12:32N 29°54' E 122°02'0 0.0
2014-Jul-18 11:26N 29°54' E 122°02'0 0.0
2014-Jul-18 10:32N 29°54' E 122°02'0 0.0
2014-Jul-18 09:32N 29°54' E 122°02'0 0.0
2014-Jul-18 08:33N 29°54' E 122°02'0 0.0
2014-Jul-18 07:33N 29°54' E 122°02'0 0.0
2014-Jul-18 06:32N 29°54' E 122°02'0 0.0
2014-Jul-18 05:33N 29°54' E 122°02'3 2.9
2014-Jul-18 04:33N 29°55' E 122°05'1211.5
2014-Jul-18 03:33N 29°48' E 122°15'1010.1
2014-Jul-18 02:33N 29°42' E 122°24'2 1.6
2014-Jul-18 01:33N 29°43' E 122°24'7 7.1
2014-Jul-18 00:34N 29°44' E 122°32'7 7.0
2014-Jul-17 23:33N 29°47' E 122°39'1110.2
2014-Jul-17 22:30N 29°54' E 122°49'1411.3
2014-Jul-17 21:15N 30°05' E 122°59'1013.0
2014-Jul-17 20:28N 30°15' E 122°58'2311.9
2014-Jul-17 18:33N 30°30' E 122°38'1111.2
2014-Jul-17 17:33N 30°32' E 122°26'10 9.7
2014-Jul-17 16:33N 30°33' E 122°14'  
Track history (hours):
 
Tides and Currents Weather Stations Pressure Air Temp Water Temp Dewpoint Dewpoint Depression Visibility Wind Speed Wind Dir Waves Ship Positions

Hyundai Dominion

Last reported at 2014-Jul-27 14:34 UTC. Time now 2014-Jul-31 13:39 UTC.
Position N 01°11' E 103°50'.

Length 304 m; draft 13.1 m.

Type: Ship (hazmat cat A). MMSI: 636090990.

Date/timePositionNaut miles runAvg speedWind from/ knotsBaromVisibWave heightAir tempDewpointWater temp
2014-Jul-27 14:34N 01°11' E 103°50'5 4.1
2014-Jul-27 13:25N 01°15' E 103°54'0 0.0
2014-Jul-27 12:31N 01°15' E 103°54'0 0.1
2014-Jul-27 11:31N 01°15' E 103°54'0 0.0
2014-Jul-27 10:32N 01°15' E 103°54'0 0.1
2014-Jul-27 09:31N 01°15' E 103°54'0 0.1
2014-Jul-27 08:31N 01°15' E 103°54'0 0.0
2014-Jul-27 07:31N 01°15' E 103°54'0 0.0
2014-Jul-27 06:31N 01°15' E 103°54'0 0.0
2014-Jul-27 05:28N 01°15' E 103°54'0 0.1
2014-Jul-27 04:31N 01°15' E 103°54'0 0.1
2014-Jul-27 03:31N 01°15' E 103°54'0 0.1
2014-Jul-27 02:31N 01°15' E 103°54'0 0.1
2014-Jul-27 01:31N 01°15' E 103°54'0 0.2
2014-Jul-27 00:31N 01°15' E 103°54'0 0.3
2014-Jul-26 23:31N 01°15' E 103°54'0 0.1
2014-Jul-26 22:31N 01°15' E 103°54'0 0.1
2014-Jul-26 21:28N 01°15' E 103°54'0 0.0
2014-Jul-26 20:31N 01°15' E 103°54'0 0.0
2014-Jul-26 19:31N 01°15' E 103°54'0 0.0
2014-Jul-26 18:31N 01°15' E 103°54'0 0.0
2014-Jul-26 17:31N 01°15' E 103°54'0 0.1
2014-Jul-26 16:31N 01°15' E 103°54'0 0.1
2014-Jul-26 15:31N 01°15' E 103°54'0 0.2
2014-Jul-26 14:31N 01°15' E 103°54'0 0.0
2014-Jul-26 13:31N 01°15' E 103°54'0 0.0
2014-Jul-26 12:31N 01°15' E 103°54'0 0.1
2014-Jul-26 11:28N 01°15' E 103°54'0 0.2
2014-Jul-26 10:31N 01°15' E 103°54'0 0.0
2014-Jul-26 09:31N 01°15' E 103°54'0 0.0
2014-Jul-26 08:31N 01°15' E 103°54'0 0.0
2014-Jul-26 07:31N 01°15' E 103°54'0 0.2
2014-Jul-26 06:33N 01°15' E 103°54'6 6.1
2014-Jul-26 05:33N 01°13' E 103°48'4 3.8
2014-Jul-26 04:31N 01°16' E 103°46'0 0.0
2014-Jul-26 03:31N 01°16' E 103°46'0 0.0
2014-Jul-26 02:19N 01°16' E 103°46'0 0.0
2014-Jul-26 00:31N 01°16' E 103°46'0 0.0
2014-Jul-25 23:31N 01°16' E 103°46'0 0.0
2014-Jul-25 22:31N 01°16' E 103°46'0 0.0
2014-Jul-25 21:31N 01°16' E 103°46'0 0.0
2014-Jul-25 20:31N 01°16' E 103°46'0 0.0
2014-Jul-25 19:25N 01°16' E 103°46'0 0.0
2014-Jul-25 18:31N 01°16' E 103°46'0 0.0
2014-Jul-25 17:31N 01°16' E 103°46'0 0.0
2014-Jul-25 16:31N 01°16' E 103°46'0 0.0
2014-Jul-25 15:04N 01°16' E 103°46'0 0.0
2014-Jul-25 14:28N 01°16' E 103°46'0 0.0
2014-Jul-25 13:22N 01°16' E 103°46'0 0.0
2014-Jul-25 12:16N 01°16' E 103°46'0 0.0
2014-Jul-25 11:28N 01°16' E 103°46'0 0.0
2014-Jul-25 10:28N 01°16' E 103°46'0 0.0
2014-Jul-25 09:13N 01°16' E 103°46'0 0.0
2014-Jul-25 07:25N 01°16' E 103°46'0 0.0
2014-Jul-25 06:28N 01°16' E 103°46'2 2.7
2014-Jul-25 05:33N 01°14' E 103°47'6 6.2
2014-Jul-25 04:33N 01°12' E 103°53'3 2.5
2014-Jul-25 03:32N 01°14' E 103°55'6 6.2
2014-Jul-25 02:32N 01°15' E 104°01'  
2014-Jul-21 09:33N 22°22' E 113°54'6 5.2
2014-Jul-21 08:30N 22°28' E 113°53'0 0.0
2014-Jul-21 07:30N 22°28' E 113°53'0 0.0
2014-Jul-21 06:33N 22°28' E 113°53'0 0.0
2014-Jul-21 05:33N 22°28' E 113°53'0 0.0
2014-Jul-21 04:33N 22°28' E 113°53'0 0.0
2014-Jul-21 03:33N 22°28' E 113°53'0 0.0
2014-Jul-21 02:33N 22°28' E 113°53'0 0.0
2014-Jul-21 01:33N 22°28' E 113°53'0 0.0
2014-Jul-21 00:33N 22°28' E 113°53'0 0.0
2014-Jul-20 23:33N 22°28' E 113°53'0 0.0
2014-Jul-20 22:33N 22°28' E 113°53'0 0.0
2014-Jul-20 21:33N 22°28' E 113°53'0 0.0
2014-Jul-20 20:33N 22°28' E 113°53'0 0.0
2014-Jul-20 19:33N 22°28' E 113°53'1 1.1
2014-Jul-20 18:33N 22°27' E 113°53'18512.2
2014-Jul-20 03:18N 23°01' E 117°10'3617.8
2014-Jul-20 01:16N 23°25' E 117°41'1217.3
2014-Jul-20 00:34N 23°34' E 117°49'1817.6
2014-Jul-19 23:34N 23°45' E 118°03'1918.5
2014-Jul-19 22:33N 23°56' E 118°20'3718.1
2014-Jul-19 20:30N 24°19' E 118°52'2017.5
2014-Jul-19 19:22N 24°32' E 119°08'34216.4
2014-Jul-18 22:33N 29°23' E 122°30'1717.0
2014-Jul-18 21:33N 29°40' E 122°26'1413.9
2014-Jul-18 20:33N 29°49' E 122°14'1010.2
2014-Jul-18 19:33N 29°55' E 122°04'2 2.1
2014-Jul-18 18:32N 29°54' E 122°02'0 0.0
2014-Jul-18 17:33N 29°54' E 122°02'0 0.0
2014-Jul-18 16:32N 29°54' E 122°02'0 0.0
2014-Jul-18 15:32N 29°54' E 122°02'0 0.0
2014-Jul-18 14:32N 29°54' E 122°02'0 0.0
2014-Jul-18 13:33N 29°54' E 122°02'0 0.0
2014-Jul-18 12:32N 29°54' E 122°02'0 0.0
2014-Jul-18 11:26N 29°54' E 122°02'0 0.0
2014-Jul-18 10:32N 29°54' E 122°02'0 0.0
2014-Jul-18 09:32N 29°54' E 122°02'0 0.0
2014-Jul-18 08:33N 29°54' E 122°02'0 0.0
2014-Jul-18 07:33N 29°54' E 122°02'0 0.0
2014-Jul-18 06:32N 29°54' E 122°02'0 0.0
2014-Jul-18 05:33N 29°54' E 122°02'3 2.9
2014-Jul-18 04:33N 29°55' E 122°05'1211.5
2014-Jul-18 03:33N 29°48' E 122°15'1010.1
2014-Jul-18 02:33N 29°42' E 122°24'2 1.6
2014-Jul-18 01:33N 29°43' E 122°24'7 7.1
2014-Jul-18 00:34N 29°44' E 122°32'7 7.0
2014-Jul-17 23:33N 29°47' E 122°39'1110.2
2014-Jul-17 22:30N 29°54' E 122°49'1411.3
2014-Jul-17 21:15N 30°05' E 122°59'1013.0
2014-Jul-17 20:28N 30°15' E 122°58'2311.9
2014-Jul-17 18:33N 30°30' E 122°38'1111.2
2014-Jul-17 17:33N 30°32' E 122°26'10 9.7
2014-Jul-17 16:33N 30°33' E 122°14'  

Dump ship's entire track history